Atyray, Kazakhstan
Current Conditions -  °F | °C
As of 4:00 PM on Friday 28 Nov 2014 (Local Time) from UATG Reporting Station
Clear Clear  
Wind Chill: 21°   Ceiling: Unl
Heat Index: 30°   Visibility: 6mi
Dew Point:   Wind: 11mph
Humidity: 34%   Direction: 80°E
Pressure: 30.59"   Gusts: NA
Location:  47.1°N, 51.72°E
Report Text: UATG 281200Z 08005MPS CAVOK M01/M15 Q1036 R14/CLRD70 NOSIG RMKQFE779/1039
Loading
Personal Weather Stations






























Interactive Weather Map New forecast layout! Learn more

10-Day Weather Forecast

Advertisements
Track Severe Weather on mobile